createdAt,value
2022-08-16T00:04:18.276Z,17.30
2022-08-16T00:09:42.260Z,17.20
2022-08-16T00:15:18.369Z,17.10
2022-08-16T00:20:42.558Z,17.10
2022-08-16T00:26:34.562Z,17.10
2022-08-16T00:32:00.923Z,17.00
2022-08-16T00:37:57.727Z,16.90
2022-08-16T00:43:19.028Z,16.90
2022-08-16T00:48:45.480Z,16.70
2022-08-16T00:54:08.503Z,16.70
2022-08-16T00:59:50.723Z,16.80
2022-08-16T01:05:24.004Z,16.80
2022-08-16T01:10:47.960Z,16.80
2022-08-16T01:16:19.965Z,16.50
2022-08-16T01:22:47.632Z,16.40
2022-08-16T01:27:50.959Z,16.50
2022-08-16T01:33:15.535Z,16.70
2022-08-16T01:38:53.178Z,16.60
2022-08-16T01:44:20.643Z,16.60
2022-08-16T01:50:41.151Z,16.60
2022-08-16T01:55:26.664Z,16.70
2022-08-16T02:00:58.057Z,16.60
2022-08-16T02:06:34.154Z,16.50
2022-08-16T02:11:59.140Z,16.50
2022-08-16T02:17:42.557Z,16.20
2022-08-16T02:23:09.617Z,16.30
2022-08-16T02:28:32.806Z,16.30
2022-08-16T02:33:56.807Z,16.20
2022-08-16T02:39:27.479Z,16.30
2022-08-16T02:44:52.444Z,16.20
2022-08-16T02:50:54.190Z,16.30
2022-08-16T02:55:57.114Z,16.30
2022-08-16T03:01:24.663Z,16.30
2022-08-16T03:06:57.622Z,16.40
2022-08-16T03:12:55.757Z,16.40
2022-08-16T03:18:40.219Z,16.50
2022-08-16T03:24:03.703Z,16.30
2022-08-16T03:29:30.027Z,16.30
2022-08-16T03:34:54.042Z,16.20
2022-08-16T03:40:31.601Z,16.40
2022-08-16T03:45:57.458Z,16.50
2022-08-16T03:51:25.464Z,16.40
2022-08-16T03:56:56.761Z,16.30
2022-08-16T04:02:22.491Z,16.30
2022-08-16T04:07:54.352Z,16.40
2022-08-16T04:13:20.379Z,16.30
2022-08-16T04:18:43.642Z,16.30
2022-08-16T04:24:08.826Z,16.40
2022-08-16T04:29:43.912Z,16.30
2022-08-16T04:35:16.187Z,16.40
2022-08-16T04:40:39.475Z,16.40
2022-08-16T04:46:03.232Z,16.30
2022-08-16T04:51:36.117Z,16.50
2022-08-16T04:56:58.851Z,17.10
2022-08-16T05:02:42.090Z,17.90
2022-08-16T05:08:28.910Z,18.80
2022-08-16T05:13:51.959Z,19.00
2022-08-16T05:19:19.073Z,19.20
2022-08-16T05:25:09.439Z,19.80
2022-08-16T05:30:37.160Z,19.70
2022-08-16T05:36:14.225Z,19.80
2022-08-16T05:41:45.990Z,19.70
2022-08-16T05:47:09.376Z,20.00
2022-08-16T05:52:38.028Z,20.40
2022-08-16T05:58:07.188Z,20.50
2022-08-16T06:03:31.455Z,20.70
2022-08-16T06:08:57.833Z,21.00
2022-08-16T06:14:22.776Z,21.10
2022-08-16T06:19:51.641Z,21.00
2022-08-16T06:25:15.159Z,20.80
2022-08-16T06:30:43.925Z,20.80
2022-08-16T06:36:09.092Z,20.80
2022-08-16T06:41:39.624Z,21.20
2022-08-16T06:47:06.076Z,21.50
2022-08-16T06:52:59.769Z,21.70
2022-08-16T06:58:22.818Z,21.70
2022-08-16T07:03:59.932Z,22.00
2022-08-16T07:09:29.624Z,22.20
2022-08-16T07:14:52.095Z,22.20
2022-08-16T07:20:34.907Z,22.30
2022-08-16T07:25:56.841Z,22.50
2022-08-16T07:31:21.888Z,22.70
2022-08-16T07:36:45.672Z,23.00
2022-08-16T07:42:34.881Z,23.10
2022-08-16T07:47:57.892Z,23.40
2022-08-16T07:53:21.788Z,23.40
2022-08-16T07:58:46.179Z,23.60
2022-08-16T08:04:13.370Z,23.80
2022-08-16T08:09:43.436Z,24.00
2022-08-16T08:15:10.281Z,24.20
2022-08-16T08:20:34.674Z,24.60
2022-08-16T08:26:00.300Z,25.20
2022-08-16T08:31:25.324Z,25.90
2022-08-16T08:36:48.844Z,27.00
2022-08-16T08:42:37.052Z,28.00
2022-08-16T08:48:00.336Z,26.60
2022-08-16T08:53:30.712Z,26.00
2022-08-16T08:58:58.938Z,26.70
2022-08-16T09:04:32.933Z,27.20
2022-08-16T09:10:06.289Z,28.50
2022-08-16T09:15:32.841Z,28.30
2022-08-16T09:20:59.802Z,28.30
2022-08-16T09:26:45.036Z,27.80
2022-08-16T09:32:07.618Z,26.90
2022-08-16T09:37:36.517Z,27.40
2022-08-16T09:42:59.838Z,28.10
2022-08-16T09:48:44.379Z,28.20
2022-08-16T09:54:06.005Z,28.40
2022-08-16T09:59:30.672Z,28.20
2022-08-16T10:04:55.011Z,28.10
2022-08-16T10:10:19.203Z,29.10
2022-08-16T10:15:59.888Z,29.60
2022-08-16T10:21:22.715Z,29.50
2022-08-16T10:27:16.172Z,29.00
2022-08-16T10:32:30.482Z,29.70
2022-08-16T10:37:53.112Z,30.00
2022-08-16T10:43:18.456Z,30.70
2022-08-16T10:48:47.144Z,31.10
2022-08-16T10:54:29.609Z,31.30
2022-08-16T10:59:57.837Z,31.00
2022-08-16T11:05:20.735Z,29.60
2022-08-16T11:11:06.829Z,29.80
2022-08-16T11:17:02.520Z,29.10
2022-08-16T11:22:39.169Z,29.10
2022-08-16T11:27:55.496Z,29.10
2022-08-16T11:33:18.660Z,29.20
2022-08-16T11:39:22.787Z,29.00
2022-08-16T11:44:56.055Z,29.40
2022-08-16T11:50:19.248Z,29.80
2022-08-16T11:55:44.009Z,30.50
2022-08-16T12:01:07.299Z,31.00
2022-08-16T12:06:33.631Z,30.90
2022-08-16T12:11:56.809Z,29.90
2022-08-16T12:17:19.531Z,28.60
2022-08-16T12:22:44.614Z,28.30
2022-08-16T12:28:08.259Z,28.10
2022-08-16T12:33:32.287Z,28.10
2022-08-16T12:39:07.059Z,28.00
2022-08-16T12:44:31.294Z,27.80
2022-08-16T12:49:54.106Z,27.60
2022-08-16T12:55:16.945Z,27.60
2022-08-16T13:00:39.162Z,27.80
2022-08-16T13:06:02.384Z,28.30
2022-08-16T13:11:32.518Z,28.50
2022-08-16T13:16:54.776Z,28.50
2022-08-16T13:22:18.801Z,28.20
2022-08-16T13:28:14.889Z,28.10
2022-08-16T13:33:30.531Z,27.30
2022-08-16T13:38:52.910Z,26.80
2022-08-16T13:44:18.996Z,26.50
2022-08-16T13:49:43.810Z,26.30
2022-08-16T13:55:06.472Z,26.40
2022-08-16T14:00:41.008Z,26.20
2022-08-16T14:06:03.291Z,26.20
2022-08-16T14:11:25.847Z,26.40
2022-08-16T14:16:48.100Z,26.40
2022-08-16T14:22:31.477Z,26.40
2022-08-16T14:27:59.825Z,26.40
2022-08-16T14:33:21.995Z,26.70
2022-08-16T14:38:44.127Z,26.70
2022-08-16T14:44:09.340Z,26.90
2022-08-16T14:49:32.477Z,26.90
2022-08-16T14:54:55.043Z,26.60
2022-08-16T15:00:18.169Z,26.30
2022-08-16T15:05:41.981Z,26.10
2022-08-16T15:11:05.375Z,26.30
2022-08-16T15:16:29.076Z,26.40
2022-08-16T15:21:53.952Z,26.70
2022-08-16T15:27:16.363Z,26.80
2022-08-16T15:32:38.913Z,26.90
2022-08-16T15:38:01.487Z,26.80
2022-08-16T15:43:39.054Z,26.70
2022-08-16T15:49:03.426Z,26.60
2022-08-16T15:54:30.855Z,26.60
2022-08-16T16:00:04.279Z,26.90
2022-08-16T16:05:36.044Z,26.90
2022-08-16T16:11:04.693Z,26.40
2022-08-16T16:16:28.334Z,26.20
2022-08-16T16:21:54.022Z,26.40
2022-08-16T16:27:16.696Z,26.40
2022-08-16T16:32:38.871Z,26.60
2022-08-16T16:38:07.814Z,26.50
2022-08-16T16:43:31.961Z,26.50
2022-08-16T16:48:56.392Z,26.40
2022-08-16T16:54:27.856Z,26.20
2022-08-16T16:59:55.848Z,26.10
2022-08-16T17:05:18.493Z,26.00
2022-08-16T17:10:46.450Z,26.00
2022-08-16T17:16:18.398Z,26.10
2022-08-16T17:21:42.067Z,26.10
2022-08-16T17:27:04.467Z,25.40
2022-08-16T17:32:44.389Z,25.40
2022-08-16T17:38:11.182Z,25.10
2022-08-16T17:43:44.133Z,24.80
2022-08-16T17:49:06.985Z,24.40
2022-08-16T17:54:30.624Z,24.10
2022-08-16T17:59:53.200Z,23.90
2022-08-16T18:05:16.251Z,23.60
2022-08-16T18:10:39.023Z,23.10
2022-08-16T18:16:01.537Z,23.20
2022-08-16T18:21:42.577Z,23.20
2022-08-16T18:27:26.512Z,22.90
2022-08-16T18:32:51.071Z,22.40
2022-08-16T18:38:13.642Z,22.30
2022-08-16T18:44:22.401Z,22.10
2022-08-16T18:49:18.619Z,21.80
2022-08-16T18:55:01.993Z,21.60
2022-08-16T19:00:26.778Z,21.40
2022-08-16T19:05:54.470Z,21.30
2022-08-16T19:11:21.630Z,21.00
2022-08-16T19:16:44.704Z,20.80
2022-08-16T19:22:06.876Z,20.90
2022-08-16T19:27:32.575Z,20.80
2022-08-16T19:32:56.012Z,20.70
2022-08-16T19:38:18.180Z,20.60
2022-08-16T19:43:40.332Z,20.50
2022-08-16T19:49:03.403Z,20.20
2022-08-16T19:54:25.548Z,20.30
2022-08-16T19:59:48.568Z,20.30
2022-08-16T20:05:10.693Z,20.20
2022-08-16T20:10:33.034Z,20.10
2022-08-16T20:15:56.855Z,20.10
2022-08-16T20:21:19.504Z,20.00
2022-08-16T20:26:41.922Z,19.90
2022-08-16T20:32:06.591Z,19.90
2022-08-16T20:37:28.803Z,19.90
2022-08-16T20:43:01.169Z,20.00
2022-08-16T20:48:23.446Z,19.90
2022-08-16T20:53:45.695Z,19.80
2022-08-16T20:59:07.824Z,19.70
2022-08-16T21:04:30.334Z,19.60
2022-08-16T21:09:52.644Z,19.60
2022-08-16T21:15:16.207Z,19.50
2022-08-16T21:20:38.404Z,19.50
2022-08-16T21:26:00.592Z,19.40
2022-08-16T21:31:26.285Z,19.40
2022-08-16T21:36:49.809Z,19.30
2022-08-16T21:42:17.997Z,19.10
2022-08-16T21:47:40.127Z,19.00
2022-08-16T21:53:15.227Z,19.10
2022-08-16T21:58:37.744Z,19.00
2022-08-16T22:04:35.870Z,19.10
2022-08-16T22:09:42.577Z,19.00
2022-08-16T22:15:05.852Z,18.90
2022-08-16T22:20:29.298Z,18.80
2022-08-16T22:25:53.811Z,18.80
2022-08-16T22:31:17.770Z,18.90
2022-08-16T22:36:40.095Z,18.80
2022-08-16T22:42:09.303Z,18.70
2022-08-16T22:47:31.449Z,18.50
2022-08-16T22:52:56.402Z,18.50
2022-08-16T22:58:19.647Z,18.50
2022-08-16T23:03:42.059Z,18.60
2022-08-16T23:09:04.388Z,18.70
2022-08-16T23:14:26.496Z,18.60
2022-08-16T23:19:48.621Z,18.60
2022-08-16T23:25:13.672Z,18.50
2022-08-16T23:30:38.893Z,18.40
2022-08-16T23:36:03.914Z,18.10
2022-08-16T23:41:26.127Z,18.10
2022-08-16T23:46:49.437Z,18.10
2022-08-16T23:52:11.820Z,18.10
2022-08-16T23:57:34.068Z,18.10
